createdAt,value
2022-09-26T00:00:50.510Z,1041.19
2022-09-26T00:01:50.454Z,1040.98
2022-09-26T00:02:50.512Z,1040.75
2022-09-26T00:03:50.387Z,1040.68
2022-09-26T00:04:50.391Z,1040.25
2022-09-26T00:05:50.390Z,1040.29
2022-09-26T00:06:50.393Z,1040.32
2022-09-26T00:07:50.414Z,1040.22
2022-09-26T00:08:50.404Z,1039.89
2022-09-26T00:09:50.400Z,1039.87
2022-09-26T00:10:50.510Z,1039.89
2022-09-26T00:11:50.403Z,1040.04
2022-09-26T00:12:50.432Z,1040.04
2022-09-26T00:13:50.407Z,1039.87
2022-09-26T00:14:50.445Z,1039.89
2022-09-26T00:15:50.412Z,1039.81
2022-09-26T00:16:50.474Z,1039.7
2022-09-26T00:17:50.430Z,1039.3
2022-09-26T00:18:50.416Z,1039.54
2022-09-26T00:19:50.416Z,1039.07
2022-09-26T00:20:50.414Z,1038.89
2022-09-26T00:21:50.420Z,1038.23
2022-09-26T00:22:50.440Z,1038.49
2022-09-26T00:23:50.422Z,1038.33
2022-09-26T00:24:50.425Z,1038.25
2022-09-26T00:25:50.425Z,1038.26
2022-09-26T00:26:53.319Z,1037.78
2022-09-26T00:27:50.501Z,1037.72
2022-09-26T00:28:50.427Z,1037.9
2022-09-26T00:29:50.434Z,1037.31
2022-09-26T00:35:50.447Z,1035.59
2022-09-26T00:36:50.456Z,1035.2
2022-09-26T00:37:50.448Z,1034.85
2022-09-26T00:38:50.453Z,1034.99
2022-09-26T00:39:50.451Z,1034.55
2022-09-26T00:40:50.639Z,1034.1
2022-09-26T00:41:50.453Z,1033.84
2022-09-26T00:42:50.477Z,1033.95
2022-09-26T00:43:50.455Z,1033.77
2022-09-26T00:44:50.456Z,1033.31
2022-09-26T00:45:50.505Z,1033.01
2022-09-26T00:46:50.461Z,1032.79
2022-09-26T00:47:50.473Z,1032.12
2022-09-26T00:48:50.462Z,1032.01
2022-09-26T00:49:50.464Z,1031.85
2022-09-26T00:50:50.488Z,1031.45
2022-09-26T00:51:50.469Z,1031.25
2022-09-26T00:52:50.468Z,1030.78
2022-09-26T00:53:50.475Z,1030.51
2022-09-26T00:54:50.485Z,1029.67
2022-09-26T00:55:50.505Z,1029.22
2022-09-26T00:56:53.495Z,1028.81
2022-09-26T00:57:50.480Z,1028.26
2022-09-26T00:58:50.506Z,1027.89
2022-09-26T00:59:50.486Z,1026.85
2022-09-26T01:00:50.560Z,1026.75
2022-09-26T01:01:50.602Z,1026.1
2022-09-26T01:02:50.487Z,1026.48
2022-09-26T01:03:50.487Z,1025.86
2022-09-26T01:04:50.490Z,1025.65
2022-09-26T01:05:50.509Z,1024.98
2022-09-26T01:06:50.493Z,1024.65
2022-09-26T01:07:53.653Z,1024.8
2022-09-26T01:08:50.501Z,1024.43
2022-09-26T01:09:50.499Z,1024.45
2022-09-26T01:10:50.575Z,1024.44
2022-09-26T01:11:50.503Z,1024.44
2022-09-26T01:12:50.500Z,1024.83
2022-09-26T01:13:50.507Z,1024.8
2022-09-26T01:14:50.617Z,1024.79
2022-09-26T01:15:50.630Z,1024.94
2022-09-26T01:16:50.550Z,1025.15
2022-09-26T01:17:50.514Z,1024.91
2022-09-26T01:18:53.600Z,1024.68
2022-09-26T01:19:50.513Z,1025.08
2022-09-26T01:20:50.536Z,1025.05
2022-09-26T01:21:50.552Z,1025.09
2022-09-26T01:22:50.618Z,1025.41
2022-09-26T01:23:50.523Z,1025.68
2022-09-26T01:24:50.526Z,1025.65
2022-09-26T01:25:50.546Z,1025.84
2022-09-26T01:26:50.526Z,1025.86
2022-09-26T01:27:50.531Z,1026.1
2022-09-26T01:28:50.528Z,1026.12
2022-09-26T01:29:53.670Z,1026.39
2022-09-26T01:30:50.597Z,1026.51
2022-09-26T01:31:50.534Z,1026.1
2022-09-26T01:32:50.548Z,1025.74
2022-09-26T01:33:50.538Z,1026.19
2022-09-26T01:34:50.757Z,1025.97
2022-09-26T01:35:50.562Z,1025.96
2022-09-26T01:36:50.543Z,1026.01
2022-09-26T01:37:50.548Z,1025.56
2022-09-26T01:38:50.544Z,1025.7
2022-09-26T01:39:50.550Z,1025.62
2022-09-26T01:40:54.131Z,1025.46
2022-09-26T01:41:50.550Z,1025.38
2022-09-26T01:42:50.553Z,1025.74
2022-09-26T01:43:50.574Z,1025.32
2022-09-26T01:44:50.560Z,1025.54
2022-09-26T01:45:50.694Z,1025.84
2022-09-26T01:46:50.560Z,1025.41
2022-09-26T01:47:50.563Z,1025.48
2022-09-26T01:48:50.568Z,1025.51
2022-09-26T01:49:50.564Z,1025.23
2022-09-26T01:50:50.570Z,1025.59
2022-09-26T01:51:50.569Z,1025.71
2022-09-26T01:52:50.568Z,1025.51
2022-09-26T01:53:50.573Z,1025.62
2022-09-26T01:54:50.573Z,1025.83
2022-09-26T01:55:50.576Z,1025.88
2022-09-26T01:56:50.576Z,1025.97
2022-09-26T01:57:50.614Z,1026.19
2022-09-26T01:58:50.580Z,1026.11
2022-09-26T01:59:50.578Z,1026.14
2022-09-26T02:00:50.632Z,1026.1
2022-09-26T02:01:50.643Z,1026.43
2022-09-26T02:02:50.638Z,1026.35
2022-09-26T02:03:50.589Z,1026.11
2022-09-26T02:04:50.589Z,1026.23
2022-09-26T02:05:50.592Z,1026.04
2022-09-26T02:06:50.621Z,1026.15
2022-09-26T02:07:50.612Z,1026.13
2022-09-26T02:08:50.595Z,1025.41
2022-09-26T02:09:50.596Z,1025.39
2022-09-26T02:10:50.601Z,1025.07
2022-09-26T02:11:50.599Z,1024.69
2022-09-26T02:12:50.600Z,1024.2
2022-09-26T02:13:50.607Z,1024.13
2022-09-26T02:14:50.616Z,1023.79
2022-09-26T02:15:50.607Z,1023.9
2022-09-26T02:16:50.656Z,1023.69
2022-09-26T02:17:50.635Z,1023.4
2022-09-26T02:18:50.612Z,1023.14
2022-09-26T02:19:50.621Z,1022.87
2022-09-26T02:20:50.618Z,1022.9
2022-09-26T02:21:50.617Z,1023.02
2022-09-26T02:22:50.619Z,1022.8
2022-09-26T02:23:50.624Z,1022.8
2022-09-26T02:24:50.630Z,1022.89
2022-09-26T02:25:50.624Z,1022.63
2022-09-26T02:26:50.625Z,1022.7
2022-09-26T02:27:50.629Z,1022.8
2022-09-26T02:28:50.629Z,1022.83
2022-09-26T02:29:50.639Z,1022.89
2022-09-26T02:30:50.630Z,1023.14
2022-09-26T02:31:50.684Z,1023.14
2022-09-26T02:32:50.636Z,1023.19
2022-09-26T02:33:50.667Z,1023.02
2022-09-26T02:34:50.641Z,1023.35
2022-09-26T02:35:50.641Z,1023.04
2022-09-26T02:36:50.642Z,1023.17
2022-09-26T02:37:50.649Z,1023.25
2022-09-26T02:38:50.643Z,1022.76
2022-09-26T02:39:50.644Z,1022.9
2022-09-26T02:40:50.719Z,1022.9
2022-09-26T02:41:50.653Z,1023.01
2022-09-26T02:42:50.651Z,1022.98
2022-09-26T02:43:50.655Z,1023.16
2022-09-26T02:44:50.658Z,1023.33
2022-09-26T02:45:50.886Z,1023.4
2022-09-26T02:46:50.658Z,1023.77
2022-09-26T02:47:50.664Z,1023.25
2022-09-26T02:48:50.668Z,1023.24
2022-09-26T02:49:50.774Z,1023.56
2022-09-26T02:50:50.670Z,1023.09
2022-09-26T02:51:50.666Z,1023.07
2022-09-26T02:52:50.674Z,1022.9
2022-09-26T02:53:50.675Z,1022.9
2022-09-26T02:54:50.669Z,1022.66
2022-09-26T02:55:50.895Z,1022.31
2022-09-26T02:56:50.674Z,1022.24
2022-09-26T02:57:50.679Z,1021.51
2022-09-26T02:58:50.680Z,1021.37
2022-09-26T02:59:50.680Z,1021.21
2022-09-26T03:00:50.779Z,1021.31
2022-09-26T03:01:50.685Z,1021.17
2022-09-26T03:02:50.684Z,1021.05
2022-09-26T03:03:50.765Z,1020.85
2022-09-26T03:04:50.768Z,1020.83
2022-09-26T03:05:50.717Z,1020.93
2022-09-26T03:06:50.692Z,1020.83
2022-09-26T03:07:50.694Z,1020.58
2022-09-26T03:08:50.696Z,1020.93
2022-09-26T03:09:50.699Z,1020.85
2022-09-26T03:10:50.704Z,1020.98
2022-09-26T03:11:50.699Z,1020.26
2022-09-26T03:12:50.703Z,1021.26
2022-09-26T03:13:50.710Z,1021.29
2022-09-26T03:14:51.391Z,1021.32
2022-09-26T03:15:50.708Z,1021.54
2022-09-26T03:16:50.799Z,1021.07
2022-09-26T03:17:50.710Z,1021.1
2022-09-26T03:18:50.716Z,1021.27
2022-09-26T03:19:50.861Z,1021.45
2022-09-26T03:20:50.716Z,1021.62
2022-09-26T03:21:50.741Z,1021.25
2022-09-26T03:22:50.716Z,1021.47
2022-09-26T03:23:53.570Z,1021.76
2022-09-26T03:24:50.723Z,1021.55
2022-09-26T03:25:50.824Z,1021.47
2022-09-26T03:26:50.788Z,1021.35
2022-09-26T03:27:50.727Z,1021.09
2022-09-26T03:28:50.726Z,1021.43
2022-09-26T03:29:50.730Z,1020.88
2022-09-26T03:30:50.731Z,1020.61
2022-09-26T03:31:50.763Z,1020.73
2022-09-26T03:32:50.735Z,1020.93
2022-09-26T03:33:50.735Z,1020.65
2022-09-26T03:34:53.561Z,1020.16
2022-09-26T03:35:50.743Z,1019.9
2022-09-26T03:36:50.740Z,1019.54
2022-09-26T03:37:50.767Z,1019.67
2022-09-26T03:38:50.746Z,1019.44
2022-09-26T03:39:50.746Z,1019.12
2022-09-26T03:40:50.866Z,1018.94
2022-09-26T03:41:50.753Z,1018.98
2022-09-26T03:42:50.752Z,1018.81
2022-09-26T03:43:50.753Z,1018.72
2022-09-26T03:44:50.755Z,1018.89
2022-09-26T03:45:53.824Z,1019
2022-09-26T03:46:50.756Z,1019.15
2022-09-26T03:47:50.766Z,1019.08
2022-09-26T03:48:50.761Z,1018.95
2022-09-26T03:49:50.767Z,1018.71
2022-09-26T03:50:50.764Z,1018.8
2022-09-26T03:51:50.782Z,1018.76
2022-09-26T03:52:50.770Z,1019.4
2022-09-26T03:53:50.792Z,1019.15
2022-09-26T03:54:50.771Z,1019.16
2022-09-26T03:55:50.773Z,1019.14
2022-09-26T03:56:54.129Z,1019.31
2022-09-26T03:57:50.785Z,1018.6
2022-09-26T03:58:50.776Z,1018.3
2022-09-26T03:59:50.780Z,1018.26
2022-09-26T04:00:50.859Z,1018.17
2022-09-26T04:01:50.959Z,1018.08
2022-09-26T04:02:50.787Z,1018.24
2022-09-26T04:03:51.383Z,1018.39
2022-09-26T04:04:50.793Z,1018.4
2022-09-26T04:05:50.790Z,1018.3
2022-09-26T04:06:50.790Z,1018.25
2022-09-26T04:07:53.651Z,1018.11
2022-09-26T04:08:50.792Z,1017.9
2022-09-26T04:09:50.855Z,1018.2
2022-09-26T04:10:50.795Z,1018.33
2022-09-26T04:11:50.799Z,1018.19
2022-09-26T04:12:50.801Z,1018.73
2022-09-26T04:13:52.695Z,1018.4
2022-09-26T04:14:50.807Z,1018.6
2022-09-26T04:15:50.809Z,1017.99
2022-09-26T04:16:50.913Z,1017.99
2022-09-26T04:17:50.807Z,1018.01
2022-09-26T04:18:50.817Z,1018.04
2022-09-26T04:19:50.813Z,1017.69
2022-09-26T04:20:50.815Z,1017.76
2022-09-26T04:21:50.816Z,1017.67
2022-09-26T04:22:50.815Z,1017.51
2022-09-26T04:23:50.822Z,1017.05
2022-09-26T04:24:50.829Z,1017.02
2022-09-26T04:25:50.845Z,1016.52
2022-09-26T04:26:50.823Z,1016.39
2022-09-26T04:27:50.824Z,1016.01
2022-09-26T04:28:50.834Z,1015.97
2022-09-26T04:29:50.828Z,1016.23
2022-09-26T04:30:50.842Z,1016.22
2022-09-26T04:31:50.964Z,1016.09
2022-09-26T04:32:50.831Z,1016.26
2022-09-26T04:33:50.835Z,1016.17
2022-09-26T04:34:50.838Z,1015.76
2022-09-26T04:35:50.839Z,1015.74
2022-09-26T04:36:50.839Z,1015.35
2022-09-26T04:37:50.843Z,1015.03
2022-09-26T04:38:50.844Z,1014.34
2022-09-26T04:39:50.846Z,1014.25
2022-09-26T04:40:50.861Z,1013.74
2022-09-26T04:41:50.886Z,1013.28
2022-09-26T04:42:50.849Z,1013.04
2022-09-26T04:43:50.851Z,1012.96
2022-09-26T04:44:50.852Z,1012.68
2022-09-26T04:45:50.950Z,1012.12
2022-09-26T04:46:50.858Z,1012.07
2022-09-26T04:47:50.862Z,1011.98
2022-09-26T04:48:50.865Z,1011.95
2022-09-26T04:49:50.863Z,1011.12
2022-09-26T04:50:50.863Z,1011.02
2022-09-26T04:51:50.867Z,1010.63
2022-09-26T04:52:50.868Z,1010.3
2022-09-26T04:53:50.869Z,1010.03
2022-09-26T04:54:50.873Z,1009.59
2022-09-26T04:55:50.874Z,1009.28
2022-09-26T04:56:50.882Z,1008.61
2022-09-26T04:57:50.905Z,1008.53
2022-09-26T04:58:50.874Z,1007.97
2022-09-26T04:59:50.878Z,1007.38
2022-09-26T05:00:50.943Z,1007.19
2022-09-26T05:01:51.041Z,1006.87
2022-09-26T05:02:50.890Z,1006.71
2022-09-26T05:03:50.884Z,1006.23
2022-09-26T05:04:50.891Z,1005.7
2022-09-26T05:05:50.991Z,1005.33
2022-09-26T05:06:50.888Z,1005.37
2022-09-26T05:07:50.901Z,1005.4
2022-09-26T05:08:50.894Z,1004.99
2022-09-26T05:09:50.897Z,1005.03
2022-09-26T05:10:50.894Z,1005.22
2022-09-26T05:11:50.903Z,1005.01
2022-09-26T05:12:50.917Z,1004.96
2022-09-26T05:13:53.490Z,1004.88
2022-09-26T05:14:50.903Z,1004.85
2022-09-26T05:15:50.969Z,1005.03
2022-09-26T05:16:50.963Z,1005.04
2022-09-26T05:17:50.935Z,1004.94
2022-09-26T05:18:50.910Z,1004.99
2022-09-26T05:19:50.908Z,1004.7
2022-09-26T05:20:50.914Z,1004.55
2022-09-26T05:21:50.912Z,1004.58
2022-09-26T05:22:50.931Z,1004.52
2022-09-26T05:23:50.929Z,1004.54
2022-09-26T05:24:50.917Z,1003.32
2022-09-26T05:25:50.924Z,1003.81
2022-09-26T05:26:50.921Z,1003.7
2022-09-26T05:27:51.113Z,1003.22
2022-09-26T05:28:50.924Z,1003.65
2022-09-26T05:29:51.034Z,1003.69
2022-09-26T05:30:50.928Z,1003.8
2022-09-26T05:31:51.051Z,1003.74
2022-09-26T05:32:50.951Z,1003.64
2022-09-26T05:33:50.938Z,1003.61
2022-09-26T05:34:50.934Z,1003.03
2022-09-26T05:35:50.939Z,1002.95
2022-09-26T05:36:51.091Z,1002.77
2022-09-26T05:37:50.960Z,1002.7
2022-09-26T05:38:50.949Z,1002.84
2022-09-26T05:39:50.942Z,1003.2
2022-09-26T05:40:51.019Z,1003.56
2022-09-26T05:41:51.015Z,1003.27
2022-09-26T05:42:50.965Z,1003.34
2022-09-26T05:43:50.953Z,1003.2
2022-09-26T05:44:50.951Z,1003.24
2022-09-26T05:45:51.296Z,1003.71
2022-09-26T05:46:50.965Z,1003.67
2022-09-26T05:47:51.120Z,1003.51
2022-09-26T05:48:50.959Z,1003.93
2022-09-26T05:49:50.959Z,1003.78
2022-09-26T05:50:51.001Z,1003.79
2022-09-26T05:51:51.004Z,1003.92
2022-09-26T05:52:50.996Z,1004.25
2022-09-26T05:53:50.968Z,1004.46
2022-09-26T05:54:54.040Z,1004.68
2022-09-26T05:55:50.976Z,1004.77
2022-09-26T05:56:51.001Z,1004.75
2022-09-26T05:57:51.001Z,1005.14
2022-09-26T05:58:50.994Z,1005.43
2022-09-26T05:59:50.998Z,1005.84
2022-09-26T06:00:51.015Z,1005.79
2022-09-26T06:01:54.214Z,1006.48
2022-09-26T06:02:50.999Z,1006.63
2022-09-26T06:03:50.989Z,1007.58
2022-09-26T06:04:50.992Z,1008.39
2022-09-26T06:05:50.988Z,1008.77
2022-09-26T06:06:50.990Z,1008.8
2022-09-26T06:07:53.842Z,1009.12
2022-09-26T06:08:50.996Z,1008.85
2022-09-26T06:09:50.996Z,1009.1
2022-09-26T06:10:50.997Z,1009.72
2022-09-26T06:11:51.043Z,1010.38
2022-09-26T06:12:52.220Z,1010.03
2022-09-26T06:13:50.999Z,1010.3
2022-09-26T06:14:51.000Z,1010
2022-09-26T06:15:51.543Z,1010.13
2022-09-26T06:16:51.050Z,1009.89
2022-09-26T06:17:51.028Z,1009.48
2022-09-26T06:18:51.036Z,1010.3
2022-09-26T06:19:51.012Z,1011.37
2022-09-26T06:20:51.023Z,1013.96
2022-09-26T06:21:51.024Z,1017.17
2022-09-26T06:22:51.019Z,1021.52
2022-09-26T06:23:54.042Z,1025.18
2022-09-26T06:24:51.033Z,1028.95
2022-09-26T06:25:51.025Z,1031.87
2022-09-26T06:26:51.025Z,1034.99
2022-09-26T06:27:51.026Z,1037.87
2022-09-26T06:28:51.025Z,1040.62
2022-09-26T06:29:51.025Z,1043.95
2022-09-26T06:30:51.150Z,1047.02
2022-09-26T06:31:51.115Z,1050.09
2022-09-26T06:32:51.032Z,1053.37
2022-09-26T06:33:51.144Z,1056.91
2022-09-26T06:34:53.783Z,1060.38
2022-09-26T06:35:51.039Z,1063.44
2022-09-26T06:36:51.038Z,1065.97
2022-09-26T06:37:51.041Z,1068.46
2022-09-26T06:38:51.045Z,1070.62
2022-09-26T06:39:52.827Z,1072.69
2022-09-26T06:40:51.078Z,1073.9
2022-09-26T06:41:51.051Z,1075.45
2022-09-26T06:42:51.052Z,1076.76
2022-09-26T06:43:51.051Z,1078
2022-09-26T06:44:51.049Z,1079.02
2022-09-26T06:45:54.157Z,1080.21
2022-09-26T06:46:51.128Z,1081.59
2022-09-26T06:47:51.054Z,1083.91
2022-09-26T06:48:51.062Z,1086.3
2022-09-26T06:49:51.173Z,1088.07
2022-09-26T06:50:51.062Z,1090.36
2022-09-26T06:51:51.066Z,1092.37
2022-09-26T06:52:51.065Z,1094.67
2022-09-26T06:53:51.073Z,1096.83
2022-09-26T06:54:51.078Z,1098.31
2022-09-26T06:55:51.068Z,1099.31
2022-09-26T06:56:51.070Z,1100.16
2022-09-26T06:57:51.075Z,1101.29
2022-09-26T06:58:51.076Z,1102.77
2022-09-26T06:59:51.080Z,1104
2022-09-26T07:00:51.195Z,1105.69
2022-09-26T07:01:51.193Z,1107.02
2022-09-26T07:02:51.083Z,1107.97
2022-09-26T07:03:51.083Z,1109.93
2022-09-26T07:04:51.089Z,1111.07
2022-09-26T07:05:51.137Z,1112.4
2022-09-26T07:06:51.089Z,1113.3
2022-09-26T07:07:51.095Z,1114.43
2022-09-26T07:09:01.899Z,1114.75
2022-09-26T07:09:51.249Z,1115.33
2022-09-26T07:10:51.104Z,1115.87
2022-09-26T07:12:13.927Z,1115.63
2022-09-26T07:12:56.905Z,1115.89
2022-09-26T07:13:56.895Z,1115.9
2022-09-26T07:14:56.891Z,1115.94
2022-09-26T07:15:56.999Z,1116.07
2022-09-26T07:16:56.894Z,1116.26
2022-09-26T07:17:56.926Z,1116.68
2022-09-26T07:18:56.902Z,1117.15
2022-09-26T07:19:56.903Z,1117.79
2022-09-26T07:20:57.152Z,1118.44
2022-09-26T07:21:56.906Z,1119.13
2022-09-26T07:22:56.928Z,1119.46
2022-09-26T07:23:56.910Z,1119.95
2022-09-26T07:24:56.910Z,1120.29
2022-09-26T07:25:56.911Z,1120.7
2022-09-26T07:26:56.911Z,1120.92
2022-09-26T07:27:56.931Z,1120.89
2022-09-26T07:28:56.919Z,1120.99
2022-09-26T07:29:56.922Z,1121.33
2022-09-26T07:30:56.921Z,1121.54
2022-09-26T07:31:56.949Z,1121.45
2022-09-26T07:32:56.941Z,1121.72
2022-09-26T07:33:56.926Z,1121.91
2022-09-26T07:34:56.930Z,1122.14
2022-09-26T07:35:57.734Z,1122.18
2022-09-26T07:36:56.955Z,1122.31
2022-09-26T07:37:56.954Z,1122.43
2022-09-26T07:38:56.933Z,1122.45
2022-09-26T07:40:00.764Z,1122.46
2022-09-26T07:40:56.977Z,1122.44
2022-09-26T07:41:56.938Z,1122.41
2022-09-26T07:43:15.625Z,1122.39
2022-09-26T07:45:35.155Z,1122.23
2022-09-26T07:46:35.218Z,1122.14
2022-09-26T07:47:35.134Z,1122.15
2022-09-26T07:48:35.163Z,1122.07
2022-09-26T07:49:35.138Z,1121.84
2022-09-26T07:50:35.138Z,1121.64
2022-09-26T07:51:35.141Z,1121.37
2022-09-26T07:52:35.171Z,1121.04
2022-09-26T07:53:35.159Z,1120.65
2022-09-26T07:54:35.198Z,1120.19
2022-09-26T07:55:35.149Z,1119.72
2022-09-26T07:56:35.150Z,1119.18
2022-09-26T07:57:35.153Z,1119.06
2022-09-26T07:58:35.171Z,1119.27
2022-09-26T07:59:35.155Z,1119.21
2022-09-26T08:00:35.190Z,1119.22
2022-09-26T08:01:35.231Z,1119.15
2022-09-26T08:02:35.268Z,1119.07
2022-09-26T08:03:35.177Z,1118.88
2022-09-26T08:04:35.167Z,1118.74
2022-09-26T08:05:35.164Z,1118.83
2022-09-26T08:06:35.262Z,1118.69
2022-09-26T08:07:35.171Z,1118.31
2022-09-26T08:08:35.215Z,1117.85
2022-09-26T08:09:35.172Z,1117.6
2022-09-26T08:10:35.174Z,1117.25
2022-09-26T08:11:38.011Z,1116.61
2022-09-26T08:12:35.179Z,1115.68
2022-09-26T08:13:35.195Z,1114.48
2022-09-26T08:14:35.183Z,1113.36
2022-09-26T08:15:35.183Z,1112.18
2022-09-26T08:16:35.288Z,1111.12
2022-09-26T08:17:35.193Z,1110.56
2022-09-26T08:18:35.216Z,1111.27
2022-09-26T08:19:35.188Z,1111.84
2022-09-26T08:20:35.193Z,1111.71
2022-09-26T08:21:35.195Z,1110.87
2022-09-26T08:22:35.194Z,1109.78
2022-09-26T08:23:35.229Z,1108.55
2022-09-26T08:24:35.267Z,1106.88
2022-09-26T08:25:35.203Z,1105.19
2022-09-26T08:26:35.528Z,1103.62
2022-09-26T08:27:35.207Z,1102.07
2022-09-26T08:28:35.227Z,1101.19
2022-09-26T08:29:35.207Z,1100.76
2022-09-26T08:30:35.210Z,1100.64
2022-09-26T08:31:35.321Z,1100.13
2022-09-26T08:32:35.213Z,1099.25
2022-09-26T08:33:35.263Z,1098.41
2022-09-26T08:34:35.240Z,1097.75
2022-09-26T08:35:35.223Z,1097.11
2022-09-26T08:36:35.225Z,1097.26
2022-09-26T08:37:35.262Z,1097.18
2022-09-26T08:38:35.242Z,1096.57
2022-09-26T08:39:35.225Z,1095.59
2022-09-26T08:40:35.313Z,1094.19
2022-09-26T08:41:35.232Z,1092.7
2022-09-26T08:42:35.231Z,1091.49
2022-09-26T08:43:35.251Z,1090.35
2022-09-26T08:44:35.237Z,1088.82
2022-09-26T08:45:35.243Z,1087
2022-09-26T08:46:35.329Z,1085.35
2022-09-26T08:47:35.242Z,1084.89
2022-09-26T08:48:35.259Z,1086.15
2022-09-26T08:49:35.274Z,1086.74
2022-09-26T08:50:35.244Z,1086.28
2022-09-26T08:51:35.248Z,1085.2
2022-09-26T08:52:35.251Z,1084.53
2022-09-26T08:53:35.273Z,1083.52
2022-09-26T08:54:38.004Z,1082.63
2022-09-26T08:55:35.258Z,1081.15
2022-09-26T08:56:35.295Z,1079.93
2022-09-26T08:57:35.272Z,1078.89
2022-09-26T08:58:35.281Z,1078.58
2022-09-26T08:59:35.264Z,1078.05
2022-09-26T09:00:35.268Z,1077.26
2022-09-26T09:01:35.335Z,1076.26
2022-09-26T09:02:35.363Z,1075.39
2022-09-26T09:03:35.284Z,1073.78
2022-09-26T09:04:35.270Z,1073.4
2022-09-26T09:05:38.064Z,1074.88
2022-09-26T09:06:35.284Z,1073.79
2022-09-26T09:07:35.285Z,1075.34
2022-09-26T09:08:35.297Z,1076.65
2022-09-26T09:09:35.280Z,1076.4
2022-09-26T09:10:35.284Z,1077.66
2022-09-26T09:11:35.286Z,1075.54
2022-09-26T09:12:35.317Z,1076.13
2022-09-26T09:13:35.303Z,1075.51
2022-09-26T09:14:35.293Z,1076.37
2022-09-26T09:15:35.352Z,1078.98
2022-09-26T09:16:38.391Z,1080.32
2022-09-26T09:17:35.294Z,1076.24
2022-09-26T09:18:35.325Z,1076.65
2022-09-26T09:19:35.304Z,1077.6
2022-09-26T09:20:35.302Z,1080.47
2022-09-26T09:21:39.435Z,1084.4
2022-09-26T09:22:35.304Z,1085.41
2022-09-26T09:23:35.335Z,1084.14
2022-09-26T09:24:35.308Z,1082.51
2022-09-26T09:25:35.309Z,1080.59
2022-09-26T09:28:10.942Z,1075.15
2022-09-26T09:29:11.037Z,1071.08
2022-09-26T09:30:16.388Z,1066.92
2022-09-26T09:31:11.106Z,1064.11
2022-09-26T09:32:10.903Z,1067.05
2022-09-26T09:33:10.902Z,1073.24
2022-09-26T09:34:10.924Z,1078.32
2022-09-26T09:35:10.906Z,1081.62
2022-09-26T09:36:10.906Z,1084.23
2022-09-26T09:37:10.907Z,1086.49
2022-09-26T09:38:10.929Z,1089.38
2022-09-26T09:39:10.937Z,1090.41
2022-09-26T09:40:10.986Z,1090.55
2022-09-26T09:41:10.915Z,1093.21
2022-09-26T09:42:10.918Z,1096.04
2022-09-26T09:43:10.923Z,1098.24
2022-09-26T09:44:10.967Z,1099.15
2022-09-26T09:45:10.923Z,1097.18
2022-09-26T09:46:11.010Z,1098.19
2022-09-26T09:47:10.926Z,1099.73
2022-09-26T09:48:10.931Z,1099.34
2022-09-26T09:49:10.948Z,1098.31
2022-09-26T09:50:10.933Z,1098.53
2022-09-26T09:51:10.940Z,1097.6
2022-09-26T09:52:13.954Z,1096.39
2022-09-26T09:53:10.940Z,1092.69
2022-09-26T09:54:10.958Z,1088.98
2022-09-26T09:55:10.944Z,1087.36
2022-09-26T09:56:10.947Z,1088.75
2022-09-26T09:57:10.948Z,1085.21
2022-09-26T09:58:10.945Z,1084.81
2022-09-26T09:59:10.967Z,1086.42
2022-09-26T10:00:10.977Z,1086.26
2022-09-26T10:01:10.953Z,1087.86
2022-09-26T10:02:10.954Z,1087.34
2022-09-26T10:03:14.063Z,1086.4
2022-09-26T10:04:10.977Z,1083.88
2022-09-26T10:05:10.964Z,1082.61
2022-09-26T10:06:13.615Z,1080.32
2022-09-26T10:07:10.991Z,1077.78
2022-09-26T10:08:10.970Z,1075.61
2022-09-26T10:09:35.114Z,1073.63
2022-09-26T10:10:10.972Z,1071.66
2022-09-26T10:11:10.972Z,1069.57
2022-09-26T10:12:10.971Z,1065.71
2022-09-26T10:13:10.988Z,1063.18
2022-09-26T10:14:12.495Z,1061.13
2022-09-26T10:15:10.982Z,1061.92
2022-09-26T10:16:11.126Z,1062.03
2022-09-26T10:17:10.988Z,1063.25
2022-09-26T10:18:27.311Z,1063.6
2022-09-26T10:19:10.986Z,1059.93
2022-09-26T10:20:10.994Z,1058.85
2022-09-26T10:21:10.994Z,1057.73
2022-09-26T10:22:10.997Z,1058.03
2022-09-26T10:23:11.005Z,1054.99
2022-09-26T10:24:10.995Z,1052.2
2022-09-26T10:25:13.833Z,1052.21
2022-09-26T10:26:11.001Z,1054.1
2022-09-26T10:27:12.091Z,1052.72
2022-09-26T10:28:11.003Z,1054.85
2022-09-26T10:29:11.002Z,1052.16
2022-09-26T10:30:11.030Z,1054.27
2022-09-26T10:31:11.085Z,1058.99
2022-09-26T10:32:11.048Z,1064.45
2022-09-26T10:33:11.064Z,1067.55
2022-09-26T10:34:11.020Z,1072.63
2022-09-26T10:35:11.234Z,1077.74
2022-09-26T10:36:13.776Z,1081.58
2022-09-26T10:37:11.026Z,1080.79
2022-09-26T10:38:11.023Z,1083.75
2022-09-26T10:39:11.020Z,1086.46
2022-09-26T10:40:11.179Z,1088.55
2022-09-26T10:41:11.026Z,1090.5
2022-09-26T10:42:11.026Z,1092.07
2022-09-26T10:43:11.028Z,1093.64
2022-09-26T10:44:11.039Z,1095.44
2022-09-26T10:45:11.045Z,1096.29
2022-09-26T10:46:11.080Z,1094.07
2022-09-26T10:47:11.080Z,1092.25
2022-09-26T10:48:11.085Z,1093.33
2022-09-26T10:49:11.048Z,1093.54
2022-09-26T10:50:11.052Z,1090.05
2022-09-26T10:51:11.043Z,1089.92
2022-09-26T10:52:14.757Z,1090.28
2022-09-26T10:53:11.051Z,1090.8
2022-09-26T10:54:11.080Z,1091.04
2022-09-26T10:55:11.072Z,1091.58
2022-09-26T10:56:11.053Z,1090.49
2022-09-26T10:57:11.062Z,1090.75
2022-09-26T10:58:13.804Z,1093.09
2022-09-26T10:59:11.064Z,1095.06
2022-09-26T11:00:11.059Z,1096.01
2022-09-26T11:01:11.072Z,1095.61
2022-09-26T11:02:11.132Z,1095.52
2022-09-26T11:03:11.116Z,1096.76
2022-09-26T11:04:11.209Z,1098.71
2022-09-26T11:05:11.072Z,1099.34
2022-09-26T11:06:11.071Z,1101.7
2022-09-26T11:07:11.072Z,1101.72
2022-09-26T11:08:11.075Z,1100.99
2022-09-26T11:09:11.079Z,1099.51
2022-09-26T11:10:11.084Z,1098.73
2022-09-26T11:11:11.079Z,1097.44
2022-09-26T11:12:11.087Z,1095.95
2022-09-26T11:13:11.084Z,1096.37
2022-09-26T11:14:11.086Z,1097.04
2022-09-26T11:15:11.094Z,1095.35
2022-09-26T11:16:11.138Z,1092.89
2022-09-26T11:17:11.090Z,1093.49
2022-09-26T11:18:11.091Z,1090.99
2022-09-26T11:19:11.097Z,1091.65
2022-09-26T11:20:11.125Z,1090.28
2022-09-26T11:21:23.228Z,1088.98
2022-09-26T11:22:11.141Z,1087.24
2022-09-26T11:23:11.105Z,1088.79
2022-09-26T11:24:11.107Z,1092.46
2022-09-26T11:25:11.129Z,1093.98
2022-09-26T11:26:11.110Z,1093.56
2022-09-26T11:27:11.107Z,1091.32
2022-09-26T11:28:11.110Z,1090.95
2022-09-26T11:29:11.115Z,1092.35
2022-09-26T11:30:11.117Z,1094.7
2022-09-26T11:31:11.137Z,1096.77
2022-09-26T11:32:11.120Z,1098.99
2022-09-26T11:33:11.121Z,1101.51
2022-09-26T11:34:11.122Z,1103.61
2022-09-26T11:35:11.161Z,1105.32
2022-09-26T11:36:11.148Z,1106.71
2022-09-26T11:37:11.127Z,1107.93
2022-09-26T11:38:11.138Z,1108.64
2022-09-26T11:39:11.145Z,1109.44
2022-09-26T11:40:11.142Z,1110.69
2022-09-26T11:41:11.135Z,1111.53
2022-09-26T11:42:11.141Z,1112.62
2022-09-26T11:43:11.140Z,1113.57
2022-09-26T11:44:11.262Z,1114.45
2022-09-26T11:45:11.148Z,1115.18
2022-09-26T11:46:11.164Z,1115.92
2022-09-26T11:47:13.933Z,1116.4
2022-09-26T11:48:11.160Z,1116.72
2022-09-26T11:49:11.151Z,1117
2022-09-26T11:50:11.245Z,1117.24
2022-09-26T11:51:11.154Z,1117.31
2022-09-26T11:52:11.194Z,1117.48
2022-09-26T11:53:11.165Z,1117.6
2022-09-26T11:54:11.163Z,1117.71
2022-09-26T11:55:11.196Z,1117.79
2022-09-26T11:56:11.166Z,1117.84
2022-09-26T11:57:11.165Z,1117.88
2022-09-26T11:58:11.177Z,1118.05
2022-09-26T11:59:11.191Z,1118.19
2022-09-26T12:00:11.193Z,1118.37
2022-09-26T12:01:11.172Z,1118.69
2022-09-26T12:02:11.174Z,1118.93
2022-09-26T12:03:11.325Z,1119.11
2022-09-26T12:04:11.337Z,1119.26
2022-09-26T12:05:11.196Z,1119.32
2022-09-26T12:06:11.184Z,1119.36
2022-09-26T12:07:11.179Z,1119.42
2022-09-26T12:08:11.218Z,1119.35
2022-09-26T12:09:11.202Z,1119.2
2022-09-26T12:10:11.206Z,1119.1
2022-09-26T12:11:11.193Z,1119
2022-09-26T12:12:11.188Z,1118.71
2022-09-26T12:13:11.193Z,1118.42
2022-09-26T12:14:11.193Z,1118.04
2022-09-26T12:15:11.211Z,1117.46
2022-09-26T12:16:11.324Z,1116.93
2022-09-26T12:17:11.200Z,1116.34